CheckWX is a tool to help pilots better visualize weather data.  It is not intended as a substitute for an official pre-flight weather briefing.

07:32:49 UTC

EDDK METAR
Cologne Bonn Airport
Cologne, Germany
Current

43 mins ago

EDDK 210650Z 30015KT 4000 -RADZ BR BKN003 12/11 Q1010 RERA TEMPO 2500 RADZ BKN006
Observed
May-21 @ 06:50 UTC
Wind
  • 300° at 15 KTS
Visibility
4,007 meters
Flight Rules
LIFR
Conditions
Light Rain, Light Drizzle, Mist
Cloud Levels
  • Broken at 300' AGL
Temperature
12°C / 54°F
Dewpoint
11°C / 52°F
Humidity
94%
Altimeter
29.82" Hg
Pressure
1009.92 hPa
Previous

1 hour ago

EDDK 210620Z 31014KT 2200 RADZ BR BKN002 12/11 Q1010 TEMPO BKN006
Observed
May-21 @ 06:20 UTC
Wind
  • 310° at 14 KTS
Visibility
2,205 meters
Flight Rules
LIFR
Conditions
Rain, Drizzle, Mist
Cloud Levels
  • Broken at 200' AGL
Temperature
12°C / 54°F
Dewpoint
11°C / 52°F
Humidity
94%
Altimeter
29.82" Hg
Pressure
1009.92 hPa
Previous

2 hours ago

EDDK 210550Z 30016KT 2200 RADZ BR BKN002 11/11 Q1009 TEMPO BKN006
Observed
May-21 @ 05:50 UTC
Wind
  • 300° at 16 KTS
Visibility
2,205 meters
Flight Rules
LIFR
Conditions
Rain, Drizzle, Mist
Cloud Levels
  • Broken at 200' AGL
Temperature
11°C / 52°F
Dewpoint
11°C / 52°F
Humidity
100%
Altimeter
29.79" Hg
Pressure
1008.92 hPa